createdAt,value
2023-01-25T00:00:05.796Z,8.58
2023-01-25T00:02:33.658Z,8.58
2023-01-25T00:05:00.347Z,8.58
2023-01-25T00:07:27.159Z,8.59
2023-01-25T00:09:53.837Z,8.58
2023-01-25T00:12:20.480Z,8.59
2023-01-25T00:14:47.154Z,8.58
2023-01-25T00:17:13.794Z,8.60
2023-01-25T00:19:40.423Z,8.60
2023-01-25T00:22:07.085Z,8.60
2023-01-25T00:24:33.792Z,8.61
2023-01-25T00:27:00.476Z,8.62
2023-01-25T00:29:27.068Z,8.61
2023-01-25T00:31:59.524Z,8.62
2023-01-25T00:34:26.191Z,8.63
2023-01-25T00:36:52.762Z,8.63
2023-01-25T00:39:19.443Z,8.65
2023-01-25T00:41:46.185Z,8.67
2023-01-25T00:44:12.855Z,8.67
2023-01-25T00:46:40.081Z,8.67
2023-01-25T00:49:07.204Z,8.67
2023-01-25T00:51:33.941Z,8.69
2023-01-25T00:54:00.706Z,8.67
2023-01-25T00:56:27.365Z,8.68
2023-01-25T00:58:54.056Z,8.68
2023-01-25T01:01:20.815Z,8.66
2023-01-25T01:03:47.477Z,8.68
2023-01-25T01:06:14.515Z,8.66
2023-01-25T01:08:42.513Z,8.66
2023-01-25T01:11:11.830Z,8.67
2023-01-25T01:13:38.921Z,8.68
2023-01-25T01:16:13.976Z,8.66
2023-01-25T01:18:43.835Z,8.65
2023-01-25T01:21:12.298Z,8.64
2023-01-25T01:23:39.811Z,8.63
2023-01-25T01:26:10.842Z,8.62
2023-01-25T01:28:40.261Z,8.61
2023-01-25T01:31:11.159Z,8.61
2023-01-25T01:33:38.349Z,8.60
2023-01-25T01:36:15.733Z,8.58
2023-01-25T01:38:43.423Z,8.58
2023-01-25T01:41:11.401Z,8.55
2023-01-25T01:43:39.070Z,8.56
2023-01-25T01:46:33.441Z,8.55
2023-01-25T01:49:27.864Z,8.53
2023-01-25T01:52:05.610Z,8.51
2023-01-25T01:54:41.688Z,8.51
2023-01-25T01:57:08.286Z,8.50
2023-01-25T01:59:45.287Z,8.50
2023-01-25T02:02:13.365Z,8.49
2023-01-25T02:04:42.299Z,8.48
2023-01-25T02:07:17.435Z,8.48
2023-01-25T02:09:44.795Z,8.47
2023-01-25T02:12:13.021Z,8.48
2023-01-25T02:14:48.594Z,8.47
2023-01-25T02:17:15.502Z,8.44
2023-01-25T02:20:01.691Z,8.45
2023-01-25T02:22:45.191Z,8.44
2023-01-25T02:25:14.320Z,8.45
2023-01-25T02:27:45.776Z,8.44
2023-01-25T02:30:12.968Z,8.44
2023-01-25T02:32:39.668Z,8.44
2023-01-25T02:35:07.230Z,8.45
2023-01-25T02:37:34.207Z,8.45
2023-01-25T02:40:00.917Z,8.45
2023-01-25T02:42:31.999Z,8.45
2023-01-25T02:44:58.851Z,8.46
2023-01-25T02:47:25.479Z,8.45
2023-01-25T02:49:52.125Z,8.45
2023-01-25T02:52:18.803Z,8.47
2023-01-25T02:54:45.829Z,8.47
2023-01-25T02:57:12.533Z,8.46
2023-01-25T02:59:39.143Z,8.46
2023-01-25T03:02:05.967Z,8.47
2023-01-25T03:04:32.694Z,8.47
2023-01-25T03:06:59.395Z,8.48
2023-01-25T03:09:26.115Z,8.48
2023-01-25T03:11:52.803Z,8.48
2023-01-25T03:14:20.641Z,8.49
2023-01-25T03:16:47.390Z,8.49
2023-01-25T03:19:14.107Z,8.49
2023-01-25T03:21:41.434Z,8.49
2023-01-25T03:24:10.266Z,8.49
2023-01-25T03:26:56.929Z,8.49
2023-01-25T03:29:23.772Z,8.49
2023-01-25T03:31:50.463Z,8.50
2023-01-25T03:34:17.237Z,8.51
2023-01-25T03:36:43.940Z,8.51
2023-01-25T03:39:10.587Z,8.51
2023-01-25T03:41:37.251Z,8.51
2023-01-25T03:44:03.995Z,8.51
2023-01-25T03:46:30.651Z,8.51
2023-01-25T03:48:57.290Z,8.51
2023-01-25T03:51:23.877Z,8.51
2023-01-25T03:53:50.541Z,8.52
2023-01-25T03:56:20.327Z,8.52
2023-01-25T03:58:47.520Z,8.53
2023-01-25T04:01:14.694Z,8.52
2023-01-25T04:03:41.368Z,8.54
2023-01-25T04:06:08.736Z,8.53
2023-01-25T04:08:36.060Z,8.54
2023-01-25T04:11:08.806Z,8.55
2023-01-25T04:13:36.854Z,8.54
2023-01-25T04:16:08.286Z,8.55
2023-01-25T04:18:35.003Z,8.55
2023-01-25T04:21:01.633Z,8.56
2023-01-25T04:23:28.351Z,8.54
2023-01-25T04:25:55.673Z,8.55
2023-01-25T04:28:23.137Z,8.55
2023-01-25T04:30:49.810Z,8.55
2023-01-25T04:33:16.714Z,8.55
2023-01-25T04:35:44.436Z,8.56
2023-01-25T04:38:11.281Z,8.56
2023-01-25T04:40:38.525Z,8.55
2023-01-25T04:43:06.590Z,8.56
2023-01-25T04:45:33.706Z,8.55
2023-01-25T04:48:03.371Z,8.57
2023-01-25T04:50:31.952Z,8.56
2023-01-25T04:52:58.606Z,8.58
2023-01-25T04:55:25.320Z,8.57
2023-01-25T04:57:51.964Z,8.57
2023-01-25T05:00:19.504Z,8.56
2023-01-25T05:02:46.720Z,8.54
2023-01-25T05:05:13.912Z,8.56
2023-01-25T05:07:40.933Z,8.55
2023-01-25T05:10:08.640Z,8.56
2023-01-25T05:12:35.485Z,8.54
2023-01-25T05:15:02.417Z,8.55
2023-01-25T05:17:29.118Z,8.54
2023-01-25T05:19:55.734Z,8.54
2023-01-25T05:22:22.583Z,8.54
2023-01-25T05:24:49.636Z,8.53
2023-01-25T05:27:19.124Z,8.54
2023-01-25T05:29:46.888Z,8.55
2023-01-25T05:32:16.243Z,8.55
2023-01-25T05:34:44.395Z,8.54
2023-01-25T05:37:14.493Z,8.53
2023-01-25T05:39:41.484Z,8.53
2023-01-25T05:42:13.398Z,8.53
2023-01-25T05:44:40.750Z,8.52
2023-01-25T05:47:10.113Z,8.52
2023-01-25T05:49:36.750Z,8.53
2023-01-25T05:52:03.418Z,8.52
2023-01-25T05:54:30.079Z,8.54
2023-01-25T05:56:56.800Z,8.53
2023-01-25T05:59:23.467Z,8.53
2023-01-25T06:01:50.262Z,8.54
2023-01-25T06:04:18.651Z,8.53
2023-01-25T06:06:45.314Z,8.54
2023-01-25T06:09:13.245Z,8.53
2023-01-25T06:11:40.237Z,8.54
2023-01-25T06:14:06.865Z,8.52
2023-01-25T06:16:33.519Z,8.53
2023-01-25T06:19:00.434Z,8.52
2023-01-25T06:21:27.168Z,8.51
2023-01-25T06:23:54.485Z,8.51
2023-01-25T06:26:21.168Z,8.52
2023-01-25T06:28:47.914Z,8.51
2023-01-25T06:31:17.022Z,8.51
2023-01-25T06:33:47.424Z,8.51
2023-01-25T06:36:16.409Z,8.49
2023-01-25T06:38:43.376Z,8.47
2023-01-25T06:41:12.197Z,8.47
2023-01-25T06:43:39.260Z,8.46
2023-01-25T06:46:08.707Z,8.47
2023-01-25T06:48:35.899Z,8.47
2023-01-25T06:51:06.185Z,8.48
2023-01-25T06:53:35.700Z,8.48
2023-01-25T06:56:10.857Z,8.47
2023-01-25T06:58:39.136Z,8.47
2023-01-25T07:01:21.136Z,8.48
2023-01-25T07:03:52.320Z,8.49
2023-01-25T07:06:19.877Z,8.49
2023-01-25T07:08:46.900Z,8.50
2023-01-25T07:11:15.016Z,8.51
2023-01-25T07:13:43.468Z,8.52
2023-01-25T07:16:14.351Z,8.53
2023-01-25T07:18:42.357Z,8.53
2023-01-25T07:21:13.533Z,8.52
2023-01-25T07:23:41.667Z,8.52
2023-01-25T07:26:33.189Z,8.50
2023-01-25T07:29:00.121Z,8.50
2023-01-25T07:31:26.908Z,8.49
2023-01-25T07:33:55.757Z,8.48
2023-01-25T07:36:23.353Z,8.47
2023-01-25T07:38:56.661Z,8.46
2023-01-25T07:41:25.096Z,8.44
2023-01-25T07:43:52.546Z,8.45
2023-01-25T07:46:19.288Z,8.45
2023-01-25T07:48:50.920Z,8.45
2023-01-25T07:51:27.131Z,8.45
2023-01-25T07:54:05.173Z,8.44
2023-01-25T07:56:34.685Z,8.44
2023-01-25T07:59:02.954Z,8.44
2023-01-25T08:01:35.031Z,8.44
2023-01-25T08:04:03.143Z,8.43
2023-01-25T08:06:35.829Z,8.42
2023-01-25T08:09:11.073Z,8.39
2023-01-25T08:11:38.256Z,8.38
2023-01-25T08:14:05.272Z,8.39
2023-01-25T08:16:32.365Z,8.41
2023-01-25T08:19:00.776Z,8.43
2023-01-25T08:21:31.047Z,8.44
2023-01-25T08:24:03.612Z,8.44
2023-01-25T08:26:30.353Z,8.46
2023-01-25T08:28:57.887Z,8.45
2023-01-25T08:31:30.483Z,8.46
2023-01-25T08:33:57.530Z,8.48
2023-01-25T08:36:24.768Z,8.47
2023-01-25T08:38:57.002Z,8.47
2023-01-25T08:41:24.210Z,8.47
2023-01-25T08:43:53.550Z,8.45
2023-01-25T08:46:21.393Z,8.45
2023-01-25T08:48:48.109Z,8.45
2023-01-25T08:51:16.926Z,8.45
2023-01-25T08:53:43.723Z,8.47
2023-01-25T08:56:15.217Z,8.47
2023-01-25T08:58:47.567Z,8.48
2023-01-25T09:01:15.700Z,8.48
2023-01-25T09:03:45.154Z,8.46
2023-01-25T09:06:12.544Z,8.47
2023-01-25T09:08:39.746Z,8.48
2023-01-25T09:11:12.965Z,8.47
2023-01-25T09:13:43.511Z,8.47
2023-01-25T09:16:20.687Z,8.47
2023-01-25T09:18:49.815Z,8.48
2023-01-25T09:21:18.832Z,8.48
2023-01-25T09:23:51.111Z,8.48
2023-01-25T09:26:25.210Z,8.49
2023-01-25T09:28:53.653Z,8.50
2023-01-25T09:31:23.530Z,8.52
2023-01-25T09:33:52.705Z,8.54
2023-01-25T09:36:20.669Z,8.57
2023-01-25T09:38:47.375Z,8.58
2023-01-25T09:41:26.476Z,8.60
2023-01-25T09:44:10.540Z,8.61
2023-01-25T09:46:44.109Z,8.63
2023-01-25T09:49:45.011Z,8.65
2023-01-25T09:52:43.710Z,8.68
2023-01-25T09:55:16.960Z,8.69
2023-01-25T09:57:46.615Z,8.69
2023-01-25T10:00:40.054Z,8.69
2023-01-25T10:03:27.890Z,8.68
2023-01-25T10:05:57.940Z,8.65
2023-01-25T10:08:34.170Z,8.63
2023-01-25T10:11:14.985Z,8.62
2023-01-25T10:13:41.695Z,8.62
2023-01-25T10:16:25.615Z,8.64
2023-01-25T10:19:12.521Z,8.65
2023-01-25T10:21:49.628Z,8.68
2023-01-25T10:24:25.184Z,8.69
2023-01-25T10:27:01.612Z,8.71
2023-01-25T10:29:32.553Z,8.71
2023-01-25T10:32:25.179Z,8.76
2023-01-25T10:34:57.141Z,8.75
2023-01-25T10:37:30.906Z,8.78
2023-01-25T10:40:00.616Z,8.82
2023-01-25T10:42:31.788Z,8.85
2023-01-25T10:44:58.419Z,8.91
2023-01-25T10:47:34.158Z,8.95
2023-01-25T10:50:01.042Z,8.98
2023-01-25T10:52:32.336Z,8.99
2023-01-25T10:55:19.445Z,9.00
2023-01-25T10:57:57.915Z,9.02
2023-01-25T11:00:33.588Z,9.02
2023-01-25T11:03:00.353Z,9.00
2023-01-25T11:05:34.255Z,9.03
2023-01-25T11:08:25.317Z,9.06
2023-01-25T11:10:53.479Z,9.08
2023-01-25T11:13:21.743Z,9.12
2023-01-25T11:16:15.924Z,9.16
2023-01-25T11:18:56.650Z,9.23
2023-01-25T11:21:34.109Z,9.27
2023-01-25T11:24:05.567Z,9.31
2023-01-25T11:26:34.010Z,9.32
2023-01-25T11:29:12.629Z,9.33
2023-01-25T11:31:42.080Z,9.34
2023-01-25T11:34:11.961Z,9.27
2023-01-25T11:36:57.148Z,9.21
2023-01-25T11:39:38.832Z,9.19
2023-01-25T11:42:48.457Z,9.23
2023-01-25T11:45:22.709Z,9.25
2023-01-25T11:47:58.334Z,9.25
2023-01-25T11:50:34.726Z,9.26
2023-01-25T11:53:33.857Z,9.31
2023-01-25T11:56:38.268Z,9.31
2023-01-25T11:59:38.411Z,9.33
2023-01-25T12:02:30.659Z,9.34
2023-01-25T12:05:21.113Z,9.37
2023-01-25T12:07:56.110Z,9.39
2023-01-25T12:10:51.290Z,9.39
2023-01-25T12:13:47.474Z,9.40
2023-01-25T12:16:41.956Z,9.39
2023-01-25T12:19:14.535Z,9.35
2023-01-25T12:22:21.059Z,9.34
2023-01-25T12:25:21.874Z,9.30
2023-01-25T12:28:06.813Z,9.27
2023-01-25T12:30:45.704Z,9.25
2023-01-25T12:33:28.613Z,9.22
2023-01-25T12:36:19.134Z,9.19
2023-01-25T12:38:52.001Z,9.18
2023-01-25T12:41:54.290Z,9.15
2023-01-25T12:44:35.729Z,9.16
2023-01-25T12:47:28.690Z,9.13
2023-01-25T12:50:00.358Z,9.13
2023-01-25T12:52:36.026Z,9.10
2023-01-25T12:55:05.937Z,9.09
2023-01-25T12:57:42.784Z,9.12
2023-01-25T13:00:32.757Z,9.16
2023-01-25T13:03:17.007Z,9.19
2023-01-25T13:05:53.561Z,9.21
2023-01-25T13:08:32.081Z,9.22
2023-01-25T13:11:24.282Z,9.21
2023-01-25T13:13:51.135Z,9.16
2023-01-25T13:16:33.587Z,9.11
2023-01-25T13:19:00.172Z,9.05
2023-01-25T13:21:45.127Z,9.05
2023-01-25T13:24:25.340Z,9.07
2023-01-25T13:26:54.992Z,9.11
2023-01-25T13:29:34.937Z,9.16
2023-01-25T13:32:03.521Z,9.22
2023-01-25T13:34:36.062Z,9.26
2023-01-25T13:37:24.512Z,9.33
2023-01-25T13:40:07.658Z,9.39
2023-01-25T13:42:38.652Z,9.46
2023-01-25T13:45:08.595Z,9.62
2023-01-25T13:47:38.290Z,9.85
2023-01-25T13:50:21.660Z,9.99
2023-01-25T13:53:22.997Z,9.98
2023-01-25T13:55:52.672Z,9.90
2023-01-25T13:58:30.091Z,9.80
2023-01-25T14:00:58.490Z,9.70
2023-01-25T14:03:31.563Z,9.62
2023-01-25T14:06:02.611Z,9.56
2023-01-25T14:08:30.308Z,9.51
2023-01-25T14:10:57.979Z,9.48
2023-01-25T14:13:24.973Z,9.48
2023-01-25T14:16:10.438Z,9.46
2023-01-25T14:18:40.793Z,9.46
2023-01-25T14:21:10.606Z,9.45
2023-01-25T14:23:37.310Z,9.44
2023-01-25T14:26:04.145Z,9.40
2023-01-25T14:28:31.253Z,9.37
2023-01-25T14:31:01.595Z,9.42
2023-01-25T14:33:32.733Z,9.54
2023-01-25T14:36:16.303Z,9.67
2023-01-25T14:38:50.734Z,9.76
2023-01-25T14:41:22.535Z,9.73
2023-01-25T14:43:52.047Z,9.61
2023-01-25T14:46:33.103Z,9.60
2023-01-25T14:49:26.423Z,9.66
2023-01-25T14:52:14.726Z,9.68
2023-01-25T14:54:59.545Z,9.64
2023-01-25T14:57:37.723Z,9.59
2023-01-25T15:00:19.700Z,9.52
2023-01-25T15:02:51.454Z,9.51
2023-01-25T15:05:25.514Z,9.53
2023-01-25T15:07:54.937Z,9.55
2023-01-25T15:10:31.000Z,9.50
2023-01-25T15:13:15.249Z,9.43
2023-01-25T15:15:51.540Z,9.28
2023-01-25T15:18:52.711Z,9.13
2023-01-25T15:21:20.501Z,9.00
2023-01-25T15:23:49.086Z,8.93
2023-01-25T15:26:19.188Z,8.86
2023-01-25T15:28:46.486Z,8.78
2023-01-25T15:31:18.703Z,8.72
2023-01-25T15:33:45.374Z,8.65
2023-01-25T15:36:14.558Z,8.61
2023-01-25T15:38:41.808Z,8.55
2023-01-25T15:41:09.533Z,8.48
2023-01-25T15:43:36.246Z,8.44
2023-01-25T15:46:05.174Z,8.41
2023-01-25T15:48:43.203Z,8.38
2023-01-25T15:51:09.856Z,8.35
2023-01-25T15:53:36.597Z,8.31
2023-01-25T15:56:13.746Z,8.25
2023-01-25T15:58:43.153Z,8.21
2023-01-25T16:01:10.018Z,8.17
2023-01-25T16:03:36.879Z,8.13
2023-01-25T16:06:43.031Z,8.06
2023-01-25T16:09:22.142Z,8.03
2023-01-25T16:11:52.737Z,7.96
2023-01-25T16:14:21.152Z,7.93
2023-01-25T16:16:50.453Z,7.90
2023-01-25T16:19:20.329Z,7.87
2023-01-25T16:21:47.124Z,7.81
2023-01-25T16:24:14.295Z,7.79
2023-01-25T16:26:48.412Z,7.73
2023-01-25T16:29:15.175Z,7.69
2023-01-25T16:31:41.974Z,7.65
2023-01-25T16:34:08.759Z,7.61
2023-01-25T16:36:36.267Z,7.56
2023-01-25T16:39:16.435Z,7.51
2023-01-25T16:41:43.053Z,7.48
2023-01-25T16:44:09.742Z,7.42
2023-01-25T16:46:36.620Z,7.34
2023-01-25T16:49:06.800Z,7.32
2023-01-25T16:51:33.669Z,7.26
2023-01-25T16:54:00.416Z,7.20
2023-01-25T16:56:29.428Z,7.16
2023-01-25T16:58:58.143Z,7.14
2023-01-25T17:01:25.648Z,7.09
2023-01-25T17:03:52.418Z,7.05
2023-01-25T17:06:23.362Z,7.02
2023-01-25T17:08:50.626Z,6.99
2023-01-25T17:11:18.930Z,6.97
2023-01-25T17:13:54.312Z,6.94
2023-01-25T17:16:23.027Z,6.91
2023-01-25T17:18:55.074Z,6.85
2023-01-25T17:21:22.624Z,6.82
2023-01-25T17:23:49.689Z,6.80
2023-01-25T17:26:18.316Z,6.78
2023-01-25T17:28:46.108Z,6.77
2023-01-25T17:31:22.187Z,6.74
2023-01-25T17:33:49.534Z,6.73
2023-01-25T17:36:16.698Z,6.68
2023-01-25T17:38:43.711Z,6.66
2023-01-25T17:41:13.298Z,6.61
2023-01-25T17:43:40.425Z,6.59
2023-01-25T17:46:29.839Z,6.52
2023-01-25T17:48:57.802Z,6.47
2023-01-25T17:51:26.343Z,6.43
2023-01-25T17:53:53.480Z,6.42
2023-01-25T17:56:20.812Z,6.40
2023-01-25T17:58:48.070Z,6.38
2023-01-25T18:01:16.466Z,6.33
2023-01-25T18:03:44.121Z,6.28
2023-01-25T18:06:13.967Z,6.26
2023-01-25T18:08:42.359Z,6.23
2023-01-25T18:11:10.600Z,6.20
2023-01-25T18:13:41.846Z,6.16
2023-01-25T18:16:09.942Z,6.16
2023-01-25T18:18:38.593Z,6.14
2023-01-25T18:21:09.828Z,6.12
2023-01-25T18:23:38.117Z,6.09
2023-01-25T18:26:06.533Z,6.09
2023-01-25T18:28:34.141Z,6.09
2023-01-25T18:31:04.780Z,6.07
2023-01-25T18:33:33.235Z,6.05
2023-01-25T18:36:03.862Z,6.09
2023-01-25T18:38:32.881Z,6.12
2023-01-25T18:41:00.047Z,6.12
2023-01-25T18:43:28.164Z,6.10
2023-01-25T18:45:57.205Z,6.05
2023-01-25T18:48:31.473Z,6.03
2023-01-25T18:51:12.957Z,6.03
2023-01-25T18:53:41.560Z,6.01
2023-01-25T18:56:19.449Z,5.99
2023-01-25T18:58:46.501Z,5.99
2023-01-25T19:01:18.270Z,5.96
2023-01-25T19:03:45.987Z,5.92
2023-01-25T19:06:13.502Z,5.89
2023-01-25T19:08:44.572Z,5.87
2023-01-25T19:11:14.575Z,5.87
2023-01-25T19:13:42.484Z,5.87
2023-01-25T19:16:15.745Z,5.86
2023-01-25T19:18:47.000Z,5.82
2023-01-25T19:21:21.874Z,5.81
2023-01-25T19:23:48.755Z,5.77
2023-01-25T19:26:17.666Z,5.73
2023-01-25T19:28:45.371Z,5.70
2023-01-25T19:31:14.734Z,5.69
2023-01-25T19:33:42.120Z,5.66
2023-01-25T19:36:15.514Z,5.63
2023-01-25T19:38:43.242Z,5.59
2023-01-25T19:41:18.285Z,5.56
2023-01-25T19:43:44.989Z,5.52
2023-01-25T19:46:18.293Z,5.51
2023-01-25T19:48:48.817Z,5.50
2023-01-25T19:51:46.375Z,5.48
2023-01-25T19:54:16.938Z,5.48
2023-01-25T19:56:46.317Z,5.46
2023-01-25T19:59:16.310Z,5.45
2023-01-25T20:01:44.180Z,5.43
2023-01-25T20:04:12.833Z,5.46
2023-01-25T20:06:39.843Z,5.46
2023-01-25T20:09:07.017Z,5.42
2023-01-25T20:11:34.645Z,5.38
2023-01-25T20:14:04.569Z,5.38
2023-01-25T20:16:32.934Z,5.37
2023-01-25T20:19:00.461Z,5.35
2023-01-25T20:21:28.422Z,5.34
2023-01-25T20:23:58.404Z,5.32
2023-01-25T20:26:31.179Z,5.30
2023-01-25T20:28:59.183Z,5.29
2023-01-25T20:31:29.471Z,5.29
2023-01-25T20:34:01.800Z,5.27
2023-01-25T20:36:29.618Z,5.27
2023-01-25T20:38:56.899Z,5.26
2023-01-25T20:41:24.064Z,5.23
2023-01-25T20:43:53.075Z,5.22
2023-01-25T20:46:22.010Z,5.23
2023-01-25T20:48:49.265Z,5.24
2023-01-25T20:51:21.509Z,5.22
2023-01-25T20:53:50.087Z,5.17
2023-01-25T20:56:18.538Z,5.16
2023-01-25T20:58:50.403Z,5.14
2023-01-25T21:01:25.405Z,5.17
2023-01-25T21:03:54.495Z,5.19
2023-01-25T21:06:21.117Z,5.20
2023-01-25T21:08:47.798Z,5.18
2023-01-25T21:11:14.950Z,5.17
2023-01-25T21:13:41.651Z,5.17
2023-01-25T21:16:23.899Z,5.16
2023-01-25T21:18:52.085Z,5.16
2023-01-25T21:21:25.936Z,5.13
2023-01-25T21:23:52.750Z,5.10
2023-01-25T21:26:20.773Z,5.07
2023-01-25T21:28:49.039Z,5.07
2023-01-25T21:31:18.937Z,5.08
2023-01-25T21:33:46.854Z,5.06
2023-01-25T21:36:14.544Z,5.06
2023-01-25T21:38:43.159Z,5.04
2023-01-25T21:41:15.855Z,5.04
2023-01-25T21:44:01.278Z,5.02
2023-01-25T21:46:28.591Z,4.97
2023-01-25T21:49:19.493Z,4.94
2023-01-25T21:51:51.245Z,4.90
2023-01-25T21:54:21.845Z,4.86
2023-01-25T21:56:51.032Z,4.86
2023-01-25T21:59:18.219Z,4.86
2023-01-25T22:01:45.577Z,4.86
2023-01-25T22:04:14.402Z,4.87
2023-01-25T22:06:41.797Z,4.86
2023-01-25T22:09:09.213Z,4.82
2023-01-25T22:11:36.587Z,4.79
2023-01-25T22:14:03.289Z,4.73
2023-01-25T22:16:30.435Z,4.72
2023-01-25T22:18:57.877Z,4.70
2023-01-25T22:21:27.398Z,4.70
2023-01-25T22:23:54.314Z,4.70
2023-01-25T22:26:24.539Z,4.70
2023-01-25T22:28:52.296Z,4.70
2023-01-25T22:31:22.308Z,4.71
2023-01-25T22:33:50.171Z,4.75
2023-01-25T22:36:18.299Z,4.80
2023-01-25T22:38:45.322Z,4.85
2023-01-25T22:41:14.589Z,4.90
2023-01-25T22:43:41.574Z,4.94
2023-01-25T22:46:11.859Z,4.98
2023-01-25T22:48:38.489Z,5.02
2023-01-25T22:51:07.421Z,5.02
2023-01-25T22:53:34.595Z,5.04
2023-01-25T22:56:06.828Z,5.06
2023-01-25T22:58:35.487Z,5.10
2023-01-25T23:01:03.053Z,5.09
2023-01-25T23:03:31.723Z,5.04
2023-01-25T23:06:07.128Z,5.00
2023-01-25T23:08:35.534Z,4.98
2023-01-25T23:11:04.107Z,4.93
2023-01-25T23:13:31.842Z,4.90
2023-01-25T23:16:03.269Z,4.88
2023-01-25T23:18:48.968Z,4.91
2023-01-25T23:21:21.245Z,4.90
2023-01-25T23:23:48.126Z,4.88
2023-01-25T23:26:16.379Z,4.91
2023-01-25T23:28:43.659Z,4.93
2023-01-25T23:31:19.788Z,4.93
2023-01-25T23:33:50.537Z,4.93
2023-01-25T23:36:26.127Z,4.95
2023-01-25T23:38:55.017Z,4.99
2023-01-25T23:41:26.307Z,4.99
2023-01-25T23:43:53.847Z,5.01
2023-01-25T23:46:24.806Z,5.03
2023-01-25T23:48:51.673Z,5.05
2023-01-25T23:51:19.502Z,5.06
2023-01-25T23:53:46.924Z,5.08
2023-01-25T23:56:17.004Z,5.10
2023-01-25T23:58:44.597Z,5.11
